Terminal Aerodrome Forecast
Issued by NWS Binghamton, NY

Home | Current Version | Previous Version | Text Only | Print | Product List | Glossary On
Versions: 1 2 3 4 5 6 7 8 9 10 11 12 13 14 15 16 17 18 19 20
000
FTUS41 KBGM 230539
TAFAVP
TAF
KAVP 230539Z 2306/2406 VRB03KT P6SM BKN040
      TEMPO 2308/2312 4SM BR
     FM231200 VRB03KT P6SM BKN035
     FM240100 14006KT 5SM -TSRA BR OVC045CB
     FM240500 14006KT 4SM -SHRA BR OVC018=

USA.gov is the U.S. government's official web portal to all federal, state and local government web resources and services.